Ever Ursula — 3FCB9 — position and weather

sailwx.info

Track history (hours):
 
Tides and Currents Weather Stations Pressure Air Temp Water Temp Dewpoint Dewpoint Depression Visibility Wind Speed Wind Dir Waves Ship Positions

Ever Ursula

Last reported at 2014-Dec-22 22:24 UTC. Time now 2014-Dec-23 02:15 UTC.
Position N 38°50' E 118°21'.

Type: Cargo ship. MMSI: 357737000.

Date/timePositionNaut miles runAvg speedWind from/ knotsBaromVisibWave heightAir tempDewpointWater temp
2014-Dec-22 22:24N 38°50' E 118°21'1214.7
2014-Dec-22 21:33N 38°55' E 118°06'1313.4
2014-Dec-22 20:33N 38°58' E 117°49'2 1.9
2014-Dec-22 19:33N 38°59' E 117°47'0 0.0
2014-Dec-22 18:33N 38°59' E 117°47'0 0.0
2014-Dec-22 17:31N 38°59' E 117°47'0 0.0
2014-Dec-22 16:33N 38°59' E 117°47'0 0.0
2014-Dec-22 15:33N 38°59' E 117°47'0 0.0
2014-Dec-22 14:32N 38°59' E 117°47'0 0.0
2014-Dec-22 13:31N 38°59' E 117°47'0 0.0
2014-Dec-22 12:33N 38°59' E 117°47'0 0.0
2014-Dec-22 11:33N 38°59' E 117°47'0 0.0
2014-Dec-22 10:33N 38°59' E 117°47'0 0.0
2014-Dec-22 09:33N 38°59' E 117°47'0 0.0
2014-Dec-22 08:33N 38°59' E 117°47'0 0.0
2014-Dec-22 07:33N 38°59' E 117°47'0 0.0
2014-Dec-22 06:33N 38°59' E 117°47'0 0.1
2014-Dec-22 05:32N 38°59' E 117°47'0 0.1
2014-Dec-22 04:33N 38°59' E 117°47'0 0.0
2014-Dec-22 03:31N 38°59' E 117°47'0 0.0
2014-Dec-22 02:33N 38°59' E 117°47'0 0.0
2014-Dec-22 01:33N 38°59' E 117°47'0 0.0
2014-Dec-22 00:34N 38°59' E 117°47'0 0.0
2014-Dec-21 23:33N 38°59' E 117°47'6 5.8
2014-Dec-21 22:33N 38°57' E 117°54'10 9.9
2014-Dec-21 21:33N 38°56' E 118°07'5 4.6
2014-Dec-21 20:33N 38°53' E 118°12'7 6.8
2014-Dec-21 19:33N 38°51' E 118°20'  
2014-Dec-18 19:28N 22°60' E 117°10'1917.2
2014-Dec-18 18:23N 22°50' E 116°53'14516.3
2014-Dec-18 09:28N 22°08' E 114°22'1212.5
2014-Dec-18 08:32N 22°12' E 114°10'9 8.8
2014-Dec-18 07:34N 22°20' E 114°07'0 0.2
2014-Dec-18 06:32N 22°20' E 114°08'0 0.0
2014-Dec-18 03:32N 22°20' E 114°08'0 0.1
2014-Dec-18 02:32N 22°20' E 114°08'0 0.1
2014-Dec-18 01:32N 22°20' E 114°08'0 0.1
2014-Dec-18 00:32N 22°20' E 114°08'0 0.1
2014-Dec-17 23:32N 22°20' E 114°08'0 0.0
2014-Dec-17 22:33N 22°20' E 114°08'0 0.1
2014-Dec-17 21:28N 22°20' E 114°08'0 0.1
2014-Dec-17 20:31N 22°20' E 114°08'0 0.0
2014-Dec-17 19:31N 22°20' E 114°08'0 0.0
2014-Dec-17 18:28N 22°20' E 114°08'0 0.0
2014-Dec-17 17:31N 22°20' E 114°08'0 0.0
2014-Dec-17 16:31N 22°20' E 114°08'0 0.0
2014-Dec-17 15:31N 22°20' E 114°08'0 0.2
2014-Dec-17 14:33N 22°20' E 114°07'8 7.1
2014-Dec-17 13:28N 22°13' E 114°10'8 8.9
2014-Dec-17 12:33N 22°09' E 114°18'1615.6
2014-Dec-17 11:33N 22°10' E 114°35'60616.0
2014-Dec-15 21:33N 29°22' E 122°27'1818.2
2014-Dec-15 20:33N 29°40' E 122°25'1414.1
2014-Dec-15 19:33N 29°50' E 122°13'10 8.3
2014-Dec-15 18:21N 29°53' E 122°03'0 0.0
2014-Dec-15 17:09N 29°53' E 122°03'0 0.0
2014-Dec-15 15:21N 29°53' E 122°03'0 0.0
2014-Dec-15 09:07N 29°53' E 122°03'0 0.0
2014-Dec-15 08:13N 29°54' E 122°03'0 0.1
2014-Dec-15 07:13N 29°53' E 122°03'0 0.0
2014-Dec-15 05:13N 29°53' E 122°03'0 0.1
2014-Dec-15 04:31N 29°53' E 122°03'0 0.0
2014-Dec-15 03:31N 29°53' E 122°03'0 0.0
2014-Dec-15 01:29N 29°53' E 122°03'0 0.0
2014-Dec-15 00:29N 29°53' E 122°03'5 5.5
2014-Dec-14 23:33N 29°55' E 122°08'1211.9
2014-Dec-14 22:33N 29°46' E 122°17'8 7.9
2014-Dec-14 21:33N 29°44' E 122°26'9 9.0
2014-Dec-14 20:33N 29°45' E 122°36'  
Track history (hours):
 
Tides and Currents Weather Stations Pressure Air Temp Water Temp Dewpoint Dewpoint Depression Visibility Wind Speed Wind Dir Waves Ship Positions

Ever Ursula

Last reported at 2014-Dec-22 22:24 UTC. Time now 2014-Dec-23 02:15 UTC.
Position N 38°50' E 118°21'.

Type: Cargo ship. MMSI: 357737000.

Date/timePositionNaut miles runAvg speedWind from/ knotsBaromVisibWave heightAir tempDewpointWater temp
2014-Dec-22 22:24N 38°50' E 118°21'1214.7
2014-Dec-22 21:33N 38°55' E 118°06'1313.4
2014-Dec-22 20:33N 38°58' E 117°49'2 1.9
2014-Dec-22 19:33N 38°59' E 117°47'0 0.0
2014-Dec-22 18:33N 38°59' E 117°47'0 0.0
2014-Dec-22 17:31N 38°59' E 117°47'0 0.0
2014-Dec-22 16:33N 38°59' E 117°47'0 0.0
2014-Dec-22 15:33N 38°59' E 117°47'0 0.0
2014-Dec-22 14:32N 38°59' E 117°47'0 0.0
2014-Dec-22 13:31N 38°59' E 117°47'0 0.0
2014-Dec-22 12:33N 38°59' E 117°47'0 0.0
2014-Dec-22 11:33N 38°59' E 117°47'0 0.0
2014-Dec-22 10:33N 38°59' E 117°47'0 0.0
2014-Dec-22 09:33N 38°59' E 117°47'0 0.0
2014-Dec-22 08:33N 38°59' E 117°47'0 0.0
2014-Dec-22 07:33N 38°59' E 117°47'0 0.0
2014-Dec-22 06:33N 38°59' E 117°47'0 0.1
2014-Dec-22 05:32N 38°59' E 117°47'0 0.1
2014-Dec-22 04:33N 38°59' E 117°47'0 0.0
2014-Dec-22 03:31N 38°59' E 117°47'0 0.0
2014-Dec-22 02:33N 38°59' E 117°47'0 0.0
2014-Dec-22 01:33N 38°59' E 117°47'0 0.0
2014-Dec-22 00:34N 38°59' E 117°47'0 0.0
2014-Dec-21 23:33N 38°59' E 117°47'6 5.8
2014-Dec-21 22:33N 38°57' E 117°54'10 9.9
2014-Dec-21 21:33N 38°56' E 118°07'5 4.6
2014-Dec-21 20:33N 38°53' E 118°12'7 6.8
2014-Dec-21 19:33N 38°51' E 118°20'  
2014-Dec-18 19:28N 22°60' E 117°10'1917.2
2014-Dec-18 18:23N 22°50' E 116°53'14516.3
2014-Dec-18 09:28N 22°08' E 114°22'1212.5
2014-Dec-18 08:32N 22°12' E 114°10'9 8.8
2014-Dec-18 07:34N 22°20' E 114°07'0 0.2
2014-Dec-18 06:32N 22°20' E 114°08'0 0.0
2014-Dec-18 03:32N 22°20' E 114°08'0 0.1
2014-Dec-18 02:32N 22°20' E 114°08'0 0.1
2014-Dec-18 01:32N 22°20' E 114°08'0 0.1
2014-Dec-18 00:32N 22°20' E 114°08'0 0.1
2014-Dec-17 23:32N 22°20' E 114°08'0 0.0
2014-Dec-17 22:33N 22°20' E 114°08'0 0.1
2014-Dec-17 21:28N 22°20' E 114°08'0 0.1
2014-Dec-17 20:31N 22°20' E 114°08'0 0.0
2014-Dec-17 19:31N 22°20' E 114°08'0 0.0
2014-Dec-17 18:28N 22°20' E 114°08'0 0.0
2014-Dec-17 17:31N 22°20' E 114°08'0 0.0
2014-Dec-17 16:31N 22°20' E 114°08'0 0.0
2014-Dec-17 15:31N 22°20' E 114°08'0 0.2
2014-Dec-17 14:33N 22°20' E 114°07'8 7.1
2014-Dec-17 13:28N 22°13' E 114°10'8 8.9
2014-Dec-17 12:33N 22°09' E 114°18'1615.6
2014-Dec-17 11:33N 22°10' E 114°35'60616.0
2014-Dec-15 21:33N 29°22' E 122°27'1818.2
2014-Dec-15 20:33N 29°40' E 122°25'1414.1
2014-Dec-15 19:33N 29°50' E 122°13'10 8.3
2014-Dec-15 18:21N 29°53' E 122°03'0 0.0
2014-Dec-15 17:09N 29°53' E 122°03'0 0.0
2014-Dec-15 15:21N 29°53' E 122°03'0 0.0
2014-Dec-15 09:07N 29°53' E 122°03'0 0.0
2014-Dec-15 08:13N 29°54' E 122°03'0 0.1
2014-Dec-15 07:13N 29°53' E 122°03'0 0.0
2014-Dec-15 05:13N 29°53' E 122°03'0 0.1
2014-Dec-15 04:31N 29°53' E 122°03'0 0.0
2014-Dec-15 03:31N 29°53' E 122°03'0 0.0
2014-Dec-15 01:29N 29°53' E 122°03'0 0.0
2014-Dec-15 00:29N 29°53' E 122°03'5 5.5
2014-Dec-14 23:33N 29°55' E 122°08'1211.9
2014-Dec-14 22:33N 29°46' E 122°17'8 7.9
2014-Dec-14 21:33N 29°44' E 122°26'9 9.0
2014-Dec-14 20:33N 29°45' E 122°36'  

Dump ship's entire track history